Time;durP1;ratioP1;P1;durP2;ratioP2;P2;SDS_P1;SDS_P2;PMS_P1;PMS_P2;Temp;Humidity;BMP_temperature;BMP_pressure;BME280_temperature;BME280_humidity;BME280_pressure;Samples;Min_cycle;Max_cycle;Signal;HPM_P1;HPM_P2
2022/09/09 00:01:24;;;;;;;;;;;21.50;64.80;;;;;;5002406;28;88892;-47
2022/09/09 00:04:08;;;;;;;;;;;21.50;64.80;;;;;;5001786;28;89331;-47
2022/09/09 00:06:36;;;;;;;;;;;21.50;64.80;;;;;;5002578;28;87220;-47
2022/09/09 00:09:10;;;;;;;;;;;21.50;64.80;;;;;;5002108;28;87946;-47
2022/09/09 00:11:47;;;;;;;;;;;21.50;64.80;;;;;;5002395;28;87410;-47
2022/09/09 00:14:17;;;;;;;;;;;21.50;64.80;;;;;;5002481;28;87565;-48
2022/09/09 00:16:47;;;;;;;;;;;21.50;64.80;;;;;;5001910;28;87439;-47
2022/09/09 00:19:13;;;;;;;;;;;21.50;64.80;;;;;;5004157;28;89057;-47
2022/09/09 00:21:43;;;;;;;;;;;21.50;64.80;;;;;;5002139;28;89945;-47
2022/09/09 00:24:18;;;;;;;;;;;21.50;64.80;;;;;;5001998;28;88419;-47
2022/09/09 00:26:43;;;;;;;;;;;21.50;64.80;;;;;;5002469;28;86966;-47
2022/09/09 00:29:12;;;;;;;;;;;21.50;64.80;;;;;;5002168;28;87394;-47
2022/09/09 00:31:37;;;;;;;;;;;21.40;64.80;;;;;;5001765;28;88200;-48
2022/09/09 00:34:09;;;;;;;;;;;21.40;64.80;;;;;;5002320;28;86830;-47
2022/09/09 00:36:35;;;;;;;;;;;21.40;64.80;;;;;;5002192;28;87494;-47
2022/09/09 00:39:02;;;;;;;;;;;21.40;64.80;;;;;;5001852;28;88109;-48
2022/09/09 00:41:39;;;;;;;;;;;21.40;64.80;;;;;;5004844;28;87022;-47
2022/09/09 00:44:18;;;;;;;;;;;21.40;64.80;;;;;;5001049;28;89020;-47
2022/09/09 00:46:56;;;;;;;;;;;21.40;64.80;;;;;;5001954;28;86941;-48
2022/09/09 00:49:25;;;;;;;;;;;21.40;64.90;;;;;;5001917;28;87320;-48
2022/09/09 00:52:03;;;;;;;;;;;21.40;64.90;;;;;;5001102;28;89218;-47
2022/09/09 00:54:34;;;;;;;;;;;21.40;64.90;;;;;;5003970;28;87056;-47
2022/09/09 00:57:18;;;;;;;;;;;21.40;64.90;;;;;;5005020;28;88881;-47
2022/09/09 00:59:48;;;;;;;;;;;21.30;64.90;;;;;;5004544;28;89174;-47
2022/09/09 01:02:18;;;;;;;;;;;21.30;64.90;;;;;;5008269;28;86442;-48
2022/09/09 01:04:44;;;;;;;;;;;21.40;65.00;;;;;;5004621;28;89571;-47
2022/09/09 01:07:15;;;;;;;;;;;21.30;64.90;;;;;;5004874;28;87036;-47
2022/09/09 01:09:57;;;;;;;;;;;21.40;65.00;;;;;;5004674;28;87909;-47
2022/09/09 01:12:23;;;;;;;;;;;21.30;65.00;;;;;;5004359;28;89366;-48
2022/09/09 01:14:51;;;;;;;;;;;21.30;64.90;;;;;;5005123;28;87072;-48
2022/09/09 01:17:17;;;;;;;;;;;21.30;65.00;;;;;;5004629;28;87554;-47
2022/09/09 01:19:42;;;;;;;;;;;21.30;64.90;;;;;;5004702;28;87828;-47
2022/09/09 01:22:26;;;;;;;;;;;21.30;64.90;;;;;;5004920;28;87134;-47
2022/09/09 01:25:10;;;;;;;;;;;21.30;65.00;;;;;;5007183;28;86943;-47
2022/09/09 01:27:36;;;;;;;;;;;21.20;65.00;;;;;;5005422;28;86729;-48
2022/09/09 01:30:04;;;;;;;;;;;21.30;65.00;;;;;;5004738;28;87846;-47
2022/09/09 01:32:40;;;;;;;;;;;21.30;65.00;;;;;;5004375;28;87632;-47
2022/09/09 01:35:30;;;;;;;;;;;21.30;65.10;;;;;;5003721;28;88019;-47
2022/09/09 01:37:55;;;;;;;;;;;21.20;65.00;;;;;;5000969;28;88365;-46
2022/09/09 01:40:21;;;;;;;;;;;21.20;65.00;;;;;;5004319;28;87991;-47
2022/09/09 01:42:47;;;;;;;;;;;21.20;65.00;;;;;;5004622;28;87173;-47
2022/09/09 01:45:13;;;;;;;;;;;21.20;65.00;;;;;;5004479;28;87377;-47
2022/09/09 01:47:38;;;;;;;;;;;21.20;65.00;;;;;;5006712;28;88183;-47
2022/09/09 01:50:04;;;;;;;;;;;21.20;65.00;;;;;;5004788;28;88621;-47
2022/09/09 01:52:30;;;;;;;;;;;21.20;65.10;;;;;;5004372;28;86502;-48
2022/09/09 01:54:56;;;;;;;;;;;21.20;65.10;;;;;;5004338;28;87218;-47
2022/09/09 01:57:26;;;;;;;;;;;21.20;65.10;;;;;;5004386;28;87927;-47
2022/09/09 01:59:51;;;;;;;;;;;21.20;65.10;;;;;;5003228;28;88957;-47
2022/09/09 02:02:18;;;;;;;;;;;21.20;65.10;;;;;;5004147;28;87110;-47
2022/09/09 02:04:46;;;;;;;;;;;21.20;65.10;;;;;;5003415;28;87442;-47
2022/09/09 02:07:31;;;;;;;;;;;21.20;65.10;;;;;;5003661;28;87900;-48
2022/09/09 02:10:01;;;;;;;;;;;21.20;65.10;;;;;;5007092;28;87043;-47
2022/09/09 02:12:27;;;;;;;;;;;21.10;65.10;;;;;;5003841;28;88122;-48
2022/09/09 02:14:59;;;;;;;;;;;21.20;65.10;;;;;;5003852;28;86849;-47
2022/09/09 02:17:36;;;;;;;;;;;21.10;65.10;;;;;;5004504;28;87357;-47
2022/09/09 02:20:10;;;;;;;;;;;21.10;65.10;;;;;;5003878;28;87857;-47
2022/09/09 02:22:39;;;;;;;;;;;21.10;65.10;;;;;;5003848;28;87461;-47
2022/09/09 02:25:06;;;;;;;;;;;21.10;65.10;;;;;;5003137;28;88820;-47
2022/09/09 02:27:32;;;;;;;;;;;21.10;65.20;;;;;;5003267;28;89417;-47
2022/09/09 02:30:00;;;;;;;;;;;21.10;65.20;;;;;;5003623;28;87090;-47
2022/09/09 02:32:25;;;;;;;;;;;21.10;65.20;;;;;;5006044;28;88881;-47
2022/09/09 02:35:03;;;;;;;;;;;21.10;65.20;;;;;;5003791;28;87061;-47
2022/09/09 02:37:31;;;;;;;;;;;21.10;65.20;;;;;;5003440;28;88332;-47
2022/09/09 02:39:57;;;;;;;;;;;21.00;65.20;;;;;;5003136;28;88006;-47
2022/09/09 02:42:23;;;;;;;;;;;21.10;65.20;;;;;;5004224;28;86367;-47
2022/09/09 02:44:49;;;;;;;;;;;21.00;65.10;;;;;;5003304;28;88582;-47
2022/09/09 02:47:34;;;;;;;;;;;21.00;65.20;;;;;;5003078;28;88636;-47
2022/09/09 02:50:22;;;;;;;;;;;21.00;65.20;;;;;;5002835;28;88587;-47
2022/09/09 02:52:50;;;;;;;;;;;21.00;65.20;;;;;;5005784;28;87213;-47
2022/09/09 02:55:36;;;;;;;;;;;21.00;65.20;;;;;;5003263;28;87131;-48
2022/09/09 02:58:05;;;;;;;;;;;21.00;65.30;;;;;;5002986;28;87565;-47
2022/09/09 03:00:32;;;;;;;;;;;21.00;65.20;;;;;;5002824;28;88129;-47
2022/09/09 03:02:58;;;;;;;;;;;21.00;65.20;;;;;;5003001;28;86919;-47
2022/09/09 03:05:23;;;;;;;;;;;21.00;65.20;;;;;;5003099;28;88934;-47
2022/09/09 03:07:50;;;;;;;;;;;21.00;65.30;;;;;;5002977;28;87339;-47
2022/09/09 03:10:16;;;;;;;;;;;20.90;65.20;;;;;;5003001;28;87028;-47
2022/09/09 03:12:42;;;;;;;;;;;20.90;65.20;;;;;;5003115;28;88926;-47
2022/09/09 03:15:08;;;;;;;;;;;20.90;65.20;;;;;;5004868;28;90393;-47
2022/09/09 03:17:34;;;;;;;;;;;20.90;65.30;;;;;;5002614;28;87630;-47
2022/09/09 03:19:59;;;;;;;;;;;20.90;65.30;;;;;;5002562;28;89605;-47
2022/09/09 03:22:25;;;;;;;;;;;20.90;65.30;;;;;;5003049;28;87191;-47
2022/09/09 03:24:51;;;;;;;;;;;20.80;65.30;;;;;;5002934;28;87496;-47
2022/09/09 03:27:17;;;;;;;;;;;20.90;65.30;;;;;;5002586;28;88053;-47
2022/09/09 03:29:42;;;;;;;;;;;20.90;65.30;;;;;;5003130;28;87116;-47
2022/09/09 03:32:10;;;;;;;;;;;20.90;65.30;;;;;;5003248;28;87468;-47
2022/09/09 03:34:36;;;;;;;;;;;20.90;65.30;;;;;;5002703;28;87902;-47
2022/09/09 03:37:02;;;;;;;;;;;20.80;65.30;;;;;;5005345;28;87104;-47
2022/09/09 03:39:28;;;;;;;;;;;20.80;65.30;;;;;;5001787;28;88252;-48
2022/09/09 03:41:54;;;;;;;;;;;20.80;65.30;;;;;;5002886;28;87662;-47
2022/09/09 03:44:19;;;;;;;;;;;20.80;65.30;;;;;;5002659;28;87410;-48
2022/09/09 03:46:45;;;;;;;;;;;20.80;65.30;;;;;;5002213;28;87712;-47
2022/09/09 03:49:11;;;;;;;;;;;20.80;65.40;;;;;;5002451;28;87137;-49
2022/09/09 03:51:38;;;;;;;;;;;20.80;65.40;;;;;;5002733;28;87737;-47
2022/09/09 03:54:05;;;;;;;;;;;20.80;65.30;;;;;;5002109;28;88002;-47
2022/09/09 03:56:31;;;;;;;;;;;20.80;65.40;;;;;;5002816;28;86370;-47
2022/09/09 03:58:57;;;;;;;;;;;20.70;65.40;;;;;;5004762;28;87037;-48
2022/09/09 04:01:23;;;;;;;;;;;20.80;65.40;;;;;;5002205;28;87089;-47
2022/09/09 04:03:50;;;;;;;;;;;20.80;65.40;;;;;;5001982;28;87928;-47
2022/09/09 04:06:20;;;;;;;;;;;20.70;65.40;;;;;;5002100;28;89328;-47
2022/09/09 04:08:48;;;;;;;;;;;20.70;65.30;;;;;;5001993;28;87294;-47
2022/09/09 04:11:15;;;;;;;;;;;20.70;65.30;;;;;;5002659;28;86894;-47
2022/09/09 04:13:41;;;;;;;;;;;20.70;65.40;;;;;;5001948;28;88053;-47
2022/09/09 04:16:08;;;;;;;;;;;20.70;65.40;;;;;;5001965;28;87208;-47
2022/09/09 04:18:34;;;;;;;;;;;20.70;65.50;;;;;;5002098;28;88900;-47
2022/09/09 04:20:59;;;;;;;;;;;20.70;65.40;;;;;;5005288;28;89010;-47
2022/09/09 04:23:28;;;;;;;;;;;20.70;65.40;;;;;;5002435;28;86886;-47
2022/09/09 04:25:54;;;;;;;;;;;20.70;65.50;;;;;;5001808;28;87989;-47
2022/09/09 04:28:21;;;;;;;;;;;20.60;65.40;;;;;;5002210;28;88020;-48
2022/09/09 04:30:47;;;;;;;;;;;20.60;65.40;;;;;;5005384;28;88668;-47
2022/09/09 04:33:13;;;;;;;;;;;20.60;65.50;;;;;;5005322;28;87137;-46
2022/09/09 04:35:39;;;;;;;;;;;20.60;65.50;;;;;;5005277;28;87027;-47
2022/09/09 04:38:05;;;;;;;;;;;20.60;65.50;;;;;;5005667;28;87450;-47
2022/09/09 04:40:30;;;;;;;;;;;20.60;65.40;;;;;;5005321;28;86976;-47
2022/09/09 04:42:59;;;;;;;;;;;20.60;65.40;;;;;;5008421;28;87098;-47
2022/09/09 04:45:26;;;;;;;;;;;20.60;65.50;;;;;;5005402;28;86328;-48
2022/09/09 04:47:52;;;;;;;;;;;20.60;65.50;;;;;;5003801;28;87067;-47
2022/09/09 04:50:18;;;;;;;;;;;20.60;65.60;;;;;;5005209;28;88900;-47
2022/09/09 04:52:44;;;;;;;;;;;20.60;65.50;;;;;;5002474;28;92227;-47
2022/09/09 04:55:09;;;;;;;;;;;20.60;65.50;;;;;;5005527;28;87069;-47
2022/09/09 04:57:35;;;;;;;;;;;20.60;65.60;;;;;;5005225;28;86964;-50
2022/09/09 05:00:02;;;;;;;;;;;20.60;65.60;;;;;;5004811;28;87931;-47
2022/09/09 05:02:27;;;;;;;;;;;20.60;65.50;;;;;;5007993;28;87598;-48
2022/09/09 05:04:53;;;;;;;;;;;20.50;65.50;;;;;;5004943;28;88291;-47
2022/09/09 05:07:19;;;;;;;;;;;20.50;65.50;;;;;;5004576;28;87117;-48
2022/09/09 05:09:45;;;;;;;;;;;20.50;65.50;;;;;;5005323;28;86723;-48
2022/09/09 05:12:11;;;;;;;;;;;20.50;65.40;;;;;;5004518;28;89533;-47
2022/09/09 05:14:37;;;;;;;;;;;20.50;65.50;;;;;;5004615;28;87147;-47
2022/09/09 05:17:03;;;;;;;;;;;20.50;65.50;;;;;;5004018;28;89197;-47
2022/09/09 05:19:28;;;;;;;;;;;20.50;65.50;;;;;;5004583;28;87996;-47
2022/09/09 05:21:54;;;;;;;;;;;20.50;65.50;;;;;;5004600;28;87255;-48
2022/09/09 05:24:19;;;;;;;;;;;20.50;65.50;;;;;;5007473;28;87401;-47
2022/09/09 05:26:45;;;;;;;;;;;20.50;65.50;;;;;;5004795;28;87147;-47
2022/09/09 05:29:10;;;;;;;;;;;20.50;65.50;;;;;;5004701;28;87424;-47
2022/09/09 05:31:36;;;;;;;;;;;20.50;65.50;;;;;;5004561;28;88026;-49
2022/09/09 05:34:01;;;;;;;;;;;20.50;65.50;;;;;;5004856;28;86337;-47
2022/09/09 05:36:27;;;;;;;;;;;20.50;65.50;;;;;;5004443;28;87329;-47
2022/09/09 05:38:55;;;;;;;;;;;20.50;65.50;;;;;;5004312;28;88051;-47
2022/09/09 05:41:22;;;;;;;;;;;20.50;65.50;;;;;;5003863;28;88028;-48
2022/09/09 05:43:48;;;;;;;;;;;20.50;65.50;;;;;;5004430;28;87352;-48
2022/09/09 05:46:17;;;;;;;;;;;20.50;65.50;;;;;;5007178;28;87851;-48
2022/09/09 05:48:46;;;;;;;;;;;20.50;65.50;;;;;;5004493;28;87417;-47
2022/09/09 05:51:12;;;;;;;;;;;20.50;65.50;;;;;;5003969;28;89615;-47
2022/09/09 05:53:38;;;;;;;;;;;20.50;65.60;;;;;;5004264;28;87086;-47
2022/09/09 05:56:07;;;;;;;;;;;20.50;65.50;;;;;;5004374;28;87391;-47
2022/09/09 05:58:32;;;;;;;;;;;20.50;65.50;;;;;;5004341;28;86468;-47
2022/09/09 06:01:06;;;;;;;;;;;20.50;65.60;;;;;;5004233;28;87053;-47
2022/09/09 06:03:32;;;;;;;;;;;20.50;65.50;;;;;;5004065;28;88988;-47
2022/09/09 06:05:58;;;;;;;;;;;20.50;65.50;;;;;;5003032;28;89509;-47
2022/09/09 06:08:24;;;;;;;;;;;20.50;65.50;;;;;;5006530;28;87071;-47
2022/09/09 06:10:49;;;;;;;;;;;20.50;65.60;;;;;;5002276;28;90870;-47
2022/09/09 06:13:15;;;;;;;;;;;20.50;65.50;;;;;;5003831;28;87142;-48
2022/09/09 06:15:49;;;;;;;;;;;20.60;65.60;;;;;;5004389;28;88056;-48
2022/09/09 06:18:18;;;;;;;;;;;20.60;65.60;;;;;;5003331;28;89894;-47
2022/09/09 06:20:53;;;;;;;;;;;20.60;65.60;;;;;;5003802;28;87072;-47
2022/09/09 06:23:20;;;;;;;;;;;20.60;65.60;;;;;;5004212;28;89032;-47
2022/09/09 06:25:45;;;;;;;;;;;20.50;66.20;;;;;;5003276;28;89173;-47
2022/09/09 06:28:11;;;;;;;;;;;20.60;65.70;;;;;;5003766;28;87562;-47
2022/09/09 06:30:36;;;;;;;;;;;20.60;65.70;;;;;;5006093;28;89432;-48
2022/09/09 06:33:03;;;;;;;;;;;20.50;65.60;;;;;;5003742;28;87139;-47
2022/09/09 06:35:29;;;;;;;;;;;20.60;65.70;;;;;;5003736;28;87397;-48
2022/09/09 06:37:54;;;;;;;;;;;20.60;65.70;;;;;;5003530;28;88105;-47
2022/09/09 06:40:20;;;;;;;;;;;20.60;65.70;;;;;;5003389;28;87107;-47
2022/09/09 06:42:45;;;;;;;;;;;20.60;65.70;;;;;;5003684;28;87401;-47
2022/09/09 06:45:11;;;;;;;;;;;20.60;65.70;;;;;;5003200;28;89853;-48
2022/09/09 06:47:37;;;;;;;;;;;20.60;65.80;;;;;;5003689;28;86445;-47
2022/09/09 06:50:02;;;;;;;;;;;20.60;65.70;;;;;;5003696;28;86995;-47
2022/09/09 06:52:28;;;;;;;;;;;20.50;65.70;;;;;;5005257;28;88052;-49
2022/09/09 06:54:54;;;;;;;;;;;20.60;65.70;;;;;;5002846;28;87735;-47
2022/09/09 06:57:19;;;;;;;;;;;20.60;65.70;;;;;;5002881;28;89366;-48
2022/09/09 06:59:45;;;;;;;;;;;20.60;65.70;;;;;;5003327;28;87115;-46
2022/09/09 07:02:11;;;;;;;;;;;20.60;65.70;;;;;;5003359;28;87500;-48
2022/09/09 07:04:36;;;;;;;;;;;20.60;65.70;;;;;;5003009;28;87952;-47
2022/09/09 07:07:02;;;;;;;;;;;20.60;65.70;;;;;;5003232;28;87124;-47
2022/09/09 07:09:29;;;;;;;;;;;20.60;65.70;;;;;;5003022;28;87408;-47
2022/09/09 07:11:54;;;;;;;;;;;20.60;65.70;;;;;;5005946;28;88629;-47
2022/09/09 07:14:20;;;;;;;;;;;20.70;65.80;;;;;;5003270;28;86901;-47
2022/09/09 07:16:46;;;;;;;;;;;20.60;65.70;;;;;;5002706;28;87929;-48
2022/09/09 07:19:12;;;;;;;;;;;20.70;65.70;;;;;;5002658;28;87964;-49
2022/09/09 07:21:38;;;;;;;;;;;20.70;65.70;;;;;;5002803;28;90014;-47
2022/09/09 07:24:07;;;;;;;;;;;20.70;65.70;;;;;;5002824;28;87873;-47
2022/09/09 07:26:33;;;;;;;;;;;20.70;65.70;;;;;;5002774;28;86991;-47
2022/09/09 07:28:59;;;;;;;;;;;20.70;65.70;;;;;;5002819;28;88831;-47
2022/09/09 07:31:26;;;;;;;;;;;20.70;65.70;;;;;;5002536;28;87101;-47
2022/09/09 07:33:51;;;;;;;;;;;20.70;65.70;;;;;;5005844;28;87070;-48
2022/09/09 07:36:21;;;;;;;;;;;20.70;65.70;;;;;;5003196;28;87880;-47
2022/09/09 07:38:51;;;;;;;;;;;20.70;65.60;;;;;;5002351;28;87107;-47
2022/09/09 07:41:37;;;;;;;;;;;20.70;65.60;;;;;;5002663;28;88891;-48
2022/09/09 07:44:07;;;;;;;;;;;20.70;65.70;;;;;;5001175;28;90614;-47
2022/09/09 07:46:33;;;;;;;;;;;20.70;65.70;;;;;;5002703;28;87112;-47
2022/09/09 07:48:59;;;;;;;;;;;20.70;65.60;;;;;;5002774;28;87475;-47
2022/09/09 07:51:29;;;;;;;;;;;20.70;65.60;;;;;;5001971;28;89366;-47
2022/09/09 07:53:57;;;;;;;;;;;20.80;65.70;;;;;;5000838;28;87144;-48
2022/09/09 07:56:23;;;;;;;;;;;20.80;65.70;;;;;;5004839;28;88850;-48
2022/09/09 07:58:49;;;;;;;;;;;20.80;65.60;;;;;;5002531;28;86866;-48
2022/09/09 08:01:19;;;;;;;;;;;20.80;65.60;;;;;;5002999;28;87420;-47
2022/09/09 08:03:45;;;;;;;;;;;20.80;65.70;;;;;;5003259;28;87411;-47
2022/09/09 08:06:12;;;;;;;;;;;20.80;65.90;;;;;;5005629;28;87091;-48
2022/09/09 08:08:38;;;;;;;;;;;20.80;65.90;;;;;;5005082;28;87952;-48
2022/09/09 08:11:05;;;;;;;;;;;20.80;65.90;;;;;;5005353;28;89458;-48
2022/09/09 08:13:31;;;;;;;;;;;20.80;65.90;;;;;;5006067;28;87429;-47
2022/09/09 08:16:03;;;;;;;;;;;20.80;65.80;;;;;;5005798;28;88937;-48
2022/09/09 08:18:29;;;;;;;;;;;20.90;65.80;;;;;;5008387;28;88120;-47
2022/09/09 08:20:54;;;;;;;;;;;20.80;65.80;;;;;;5005966;28;87727;-48
2022/09/09 08:23:21;;;;;;;;;;;20.90;65.80;;;;;;5005300;28;89509;-48
2022/09/09 08:25:48;;;;;;;;;;;20.90;65.80;;;;;;5006274;28;86347;-48
2022/09/09 08:28:14;;;;;;;;;;;20.90;65.80;;;;;;5005516;28;88047;-47
2022/09/09 08:30:39;;;;;;;;;;;20.90;65.70;;;;;;5005309;28;88609;-47
2022/09/09 08:33:05;;;;;;;;;;;20.90;66.30;;;;;;5005034;28;88018;-48
2022/09/09 08:35:32;;;;;;;;;;;20.90;65.70;;;;;;5005585;28;87974;-48
2022/09/09 08:37:57;;;;;;;;;;;20.90;65.80;;;;;;5005024;28;87777;-48
2022/09/09 08:40:28;;;;;;;;;;;20.90;65.70;;;;;;5008461;28;87226;-47
2022/09/09 08:42:54;;;;;;;;;;;20.90;65.80;;;;;;5004868;28;88072;-48
2022/09/09 08:45:20;;;;;;;;;;;20.90;65.70;;;;;;5005804;28;87387;-47
2022/09/09 08:48:01;;;;;;;;;;;21.00;65.80;;;;;;5005379;28;87231;-47
2022/09/09 08:50:27;;;;;;;;;;;20.90;65.70;;;;;;5005655;28;87548;-47
2022/09/09 08:52:53;;;;;;;;;;;21.00;65.70;;;;;;5004985;28;87227;-47
2022/09/09 08:55:28;;;;;;;;;;;21.00;65.70;;;;;;5005533;28;87315;-47
2022/09/09 08:57:55;;;;;;;;;;;21.00;65.80;;;;;;5003901;28;88973;-47
2022/09/09 09:00:22;;;;;;;;;;;21.00;65.80;;;;;;5005012;28;87075;-48
2022/09/09 09:02:50;;;;;;;;;;;21.00;66.10;;;;;;5007701;28;86992;-47
2022/09/09 09:05:21;;;;;;;;;;;21.10;66.00;;;;;;5005316;28;87097;-48
2022/09/09 09:07:47;;;;;;;;;;;21.00;66.00;;;;;;5004745;28;88838;-47
2022/09/09 09:10:26;;;;;;;;;;;21.10;66.00;;;;;;5004977;28;88193;-47
2022/09/09 09:12:52;;;;;;;;;;;21.10;66.00;;;;;;5005022;28;86993;-47
2022/09/09 09:15:18;;;;;;;;;;;21.10;66.20;;;;;;5005306;28;87467;-47
2022/09/09 09:17:44;;;;;;;;;;;21.10;66.20;;;;;;5004597;28;88425;-47
2022/09/09 09:20:14;;;;;;;;;;;21.10;66.40;;;;;;5005098;28;87089;-48
2022/09/09 09:22:43;;;;;;;;;;;21.10;66.20;;;;;;5006744;28;88858;-48
2022/09/09 09:25:17;;;;;;;;;;;21.20;66.50;;;;;;5004804;28;87077;-48
2022/09/09 09:27:52;;;;;;;;;;;21.20;66.40;;;;;;5004471;28;88899;-48
2022/09/09 09:30:19;;;;;;;;;;;21.20;66.40;;;;;;5004282;28;88030;-47
2022/09/09 09:33:05;;;;;;;;;;;21.20;66.30;;;;;;5004767;28;87122;-47
2022/09/09 09:35:30;;;;;;;;;;;21.20;66.70;;;;;;5004370;28;87437;-48
2022/09/09 09:37:56;;;;;;;;;;;21.20;66.50;;;;;;5003817;28;87316;-48
2022/09/09 09:40:22;;;;;;;;;;;21.20;66.60;;;;;;5005302;28;86426;-47
2022/09/09 09:42:54;;;;;;;;;;;21.20;66.70;;;;;;5004523;28;86908;-48
2022/09/09 09:45:33;;;;;;;;;;;21.30;66.70;;;;;;5007091;28;88804;-48
2022/09/09 09:48:03;;;;;;;;;;;21.30;66.80;;;;;;5003819;28;88829;-47
2022/09/09 09:50:29;;;;;;;;;;;21.30;66.80;;;;;;5003548;28;90048;-47
2022/09/09 09:53:00;;;;;;;;;;;21.30;66.80;;;;;;5004306;28;87035;-47
2022/09/09 09:55:26;;;;;;;;;;;21.30;66.80;;;;;;5004587;28;87083;-47
2022/09/09 09:57:53;;;;;;;;;;;21.30;66.60;;;;;;5003663;28;89627;-47
2022/09/09 10:00:22;;;;;;;;;;;21.30;66.70;;;;;;5004082;28;87494;-49
2022/09/09 10:02:48;;;;;;;;;;;21.30;66.70;;;;;;5004298;28;87256;-47
2022/09/09 10:05:17;;;;;;;;;;;21.30;66.70;;;;;;5004042;28;87868;-47
2022/09/09 10:07:45;;;;;;;;;;;21.30;66.70;;;;;;5006802;28;86902;-47
2022/09/09 10:10:14;;;;;;;;;;;21.30;66.60;;;;;;5003805;28;88505;-47
2022/09/09 10:12:44;;;;;;;;;;;21.30;66.60;;;;;;5003321;28;88095;-47
2022/09/09 10:15:25;;;;;;;;;;;21.40;66.70;;;;;;5004152;28;88277;-47
2022/09/09 10:17:54;;;;;;;;;;;21.30;66.60;;;;;;5003439;28;87967;-47
2022/09/09 10:20:32;;;;;;;;;;;21.30;66.70;;;;;;5003698;28;88250;-48
2022/09/09 10:23:10;;;;;;;;;;;21.40;66.60;;;;;;5003808;28;88769;-47
2022/09/09 10:25:56;;;;;;;;;;;21.30;66.60;;;;;;5002915;28;88092;-47
2022/09/09 10:28:37;;;;;;;;;;;21.40;66.50;;;;;;5003132;28;87622;-47
2022/09/09 10:31:19;;;;;;;;;;;21.40;66.40;;;;;;5007000;28;87245;-47
2022/09/09 10:33:44;;;;;;;;;;;21.40;66.30;;;;;;5003975;28;86901;-47
2022/09/09 10:36:18;;;;;;;;;;;21.50;66.30;;;;;;5003711;28;86908;-47
2022/09/09 10:38:47;;;;;;;;;;;21.50;66.20;;;;;;5002197;28;90703;-47
2022/09/09 10:41:15;;;;;;;;;;;21.50;66.20;;;;;;5003476;28;87113;-47
2022/09/09 10:43:49;;;;;;;;;;;21.50;66.20;;;;;;5003749;28;87673;-47
2022/09/09 10:46:35;;;;;;;;;;;21.50;66.80;;;;;;5003336;28;87101;-47
2022/09/09 10:49:10;;;;;;;;;;;21.50;66.20;;;;;;5003258;28;87094;-47
2022/09/09 10:51:40;;;;;;;;;;;21.50;66.10;;;;;;5003596;28;87419;-46
2022/09/09 10:54:05;;;;;;;;;;;21.50;66.70;;;;;;5005643;28;89965;-47
2022/09/09 10:56:34;;;;;;;;;;;21.50;66.20;;;;;;5004077;28;87521;-48
2022/09/09 10:59:02;;;;;;;;;;;21.50;66.20;;;;;;5002746;28;89488;-47
2022/09/09 11:01:33;;;;;;;;;;;21.60;66.10;;;;;;5003092;28;87092;-48
2022/09/09 11:04:20;;;;;;;;;;;21.60;66.00;;;;;;5002529;28;88758;-47
2022/09/09 11:06:47;;;;;;;;;;;21.60;66.00;;;;;;5002847;28;88098;-47
2022/09/09 11:09:18;;;;;;;;;;;21.70;66.00;;;;;;5002964;28;87240;-48
2022/09/09 11:11:53;;;;;;;;;;;21.70;66.00;;;;;;5003407;28;87379;-47
2022/09/09 11:14:24;;;;;;;;;;;21.70;66.20;;;;;;5002527;28;89087;-47
2022/09/09 11:16:52;;;;;;;;;;;21.70;66.00;;;;;;5005907;28;87030;-47
2022/09/09 11:19:38;;;;;;;;;;;21.70;65.90;;;;;;5002823;28;88038;-47
2022/09/09 11:22:14;;;;;;;;;;;21.70;65.90;;;;;;5003603;28;86344;-47
2022/09/09 11:24:45;;;;;;;;;;;21.80;65.90;;;;;;5002834;28;88330;-47
2022/09/09 11:27:12;;;;;;;;;;;21.80;65.90;;;;;;5003003;28;88166;-47
2022/09/09 11:30:02;;;;;;;;;;;21.80;65.90;;;;;;5002092;28;88023;-48
2022/09/09 11:32:31;;;;;;;;;;;21.80;65.80;;;;;;5003082;28;87651;-47
2022/09/09 11:35:16;;;;;;;;;;;21.90;65.90;;;;;;5002410;28;86983;-47
2022/09/09 11:37:52;;;;;;;;;;;21.80;65.80;;;;;;5005335;28;87130;-47
2022/09/09 11:40:27;;;;;;;;;;;21.90;65.80;;;;;;5002593;28;88083;-48
2022/09/09 11:43:05;;;;;;;;;;;21.90;65.90;;;;;;5002633;28;87081;-47
2022/09/09 11:45:31;;;;;;;;;;;21.90;65.80;;;;;;5002638;28;87362;-47
2022/09/09 11:47:58;;;;;;;;;;;21.90;65.80;;;;;;5003067;28;87328;-48
2022/09/09 11:50:23;;;;;;;;;;;21.90;65.80;;;;;;5002651;28;87125;-47
2022/09/09 11:52:49;;;;;;;;;;;22.00;65.80;;;;;;5002418;28;87445;-48
2022/09/09 11:55:32;;;;;;;;;;;22.00;65.80;;;;;;5001468;28;90797;-47
2022/09/09 11:57:58;;;;;;;;;;;22.00;65.80;;;;;;5002335;28;87101;-47
2022/09/09 12:00:31;;;;;;;;;;;22.00;65.80;;;;;;5004855;28;88868;-48
2022/09/09 12:02:56;;;;;;;;;;;22.00;65.80;;;;;;5002384;28;87086;-47
2022/09/09 12:05:22;;;;;;;;;;;22.00;65.80;;;;;;5002603;28;87498;-47
2022/09/09 12:08:09;;;;;;;;;;;22.00;65.70;;;;;;5001941;28;88010;-46
2022/09/09 12:10:38;;;;;;;;;;;22.00;65.80;;;;;;5002636;28;87207;-47
2022/09/09 12:13:20;;;;;;;;;;;22.00;65.70;;;;;;5002520;28;87391;-48
2022/09/09 12:15:53;;;;;;;;;;;22.10;65.80;;;;;;5001978;28;89242;-47
2022/09/09 12:18:26;;;;;;;;;;;22.10;65.80;;;;;;5002103;28;87129;-48
2022/09/09 12:21:01;;;;;;;;;;;22.10;65.70;;;;;;5000233;28;90371;-47
2022/09/09 12:23:37;;;;;;;;;;;22.20;65.80;;;;;;5004789;28;88023;-48
2022/09/09 12:26:35;;;;;;;;;;;22.10;65.70;;;;;;5002236;28;87390;-47
2022/09/09 12:29:19;;;;;;;;;;;22.20;65.80;;;;;;4989462;28;87917;-48
2022/09/09 12:31:56;;;;;;;;;;;22.20;65.80;;;;;;5002363;28;87101;-48
2022/09/09 12:34:31;;;;;;;;;;;22.10;65.70;;;;;;5001797;28;88652;-48
2022/09/09 12:37:03;;;;;;;;;;;22.20;65.80;;;;;;5001473;28;89312;-48
2022/09/09 12:39:30;;;;;;;;;;;22.20;65.80;;;;;;5002464;28;86177;-47
2022/09/09 12:41:59;;;;;;;;;;;22.20;65.70;;;;;;5001634;28;88218;-48
2022/09/09 12:44:25;;;;;;;;;;;22.30;65.80;;;;;;5001696;28;87172;-48
2022/09/09 12:46:51;;;;;;;;;;;22.30;65.80;;;;;;5004231;28;87961;-47
2022/09/09 12:49:31;;;;;;;;;;;22.30;65.80;;;;;;5002254;28;88119;-47
2022/09/09 12:51:57;;;;;;;;;;;22.30;65.80;;;;;;5005482;28;87030;-47
2022/09/09 12:54:23;;;;;;;;;;;22.30;65.70;;;;;;5004927;28;88336;-47
2022/09/09 12:56:49;;;;;;;;;;;22.30;65.70;;;;;;5004804;28;88376;-47
2022/09/09 12:59:25;;;;;;;;;;;22.30;65.70;;;;;;5005348;28;87130;-47
2022/09/09 13:01:57;;;;;;;;;;;22.30;65.70;;;;;;5005321;28;87470;-48
2022/09/09 13:04:23;;;;;;;;;;;22.30;65.70;;;;;;5005051;28;88886;-47
2022/09/09 13:06:49;;;;;;;;;;;22.30;65.70;;;;;;5005107;28;87066;-47
2022/09/09 13:09:15;;;;;;;;;;;22.40;65.70;;;;;;5007237;28;87046;-47
2022/09/09 13:11:47;;;;;;;;;;;22.30;65.70;;;;;;5004240;28;88107;-47
2022/09/09 13:14:19;;;;;;;;;;;22.40;65.70;;;;;;5004895;28;88287;-47
2022/09/09 13:16:54;;;;;;;;;;;22.30;65.70;;;;;;5004482;28;89452;-47
2022/09/09 13:19:21;;;;;;;;;;;22.40;65.70;;;;;;5005226;28;86832;-49
2022/09/09 13:21:46;;;;;;;;;;;22.40;65.70;;;;;;5004586;28;88877;-47
2022/09/09 13:24:29;;;;;;;;;;;22.40;65.70;;;;;;5004559;28;87849;-47
2022/09/09 13:26:56;;;;;;;;;;;22.40;65.80;;;;;;5004748;28;87249;-47
2022/09/09 13:29:21;;;;;;;;;;;22.40;65.80;;;;;;5007651;28;88627;-47
2022/09/09 13:31:48;;;;;;;;;;;22.40;65.80;;;;;;5004618;28;87219;-47
2022/09/09 13:34:27;;;;;;;;;;;22.40;65.70;;;;;;5004550;28;87411;-47
2022/09/09 13:36:53;;;;;;;;;;;22.50;65.80;;;;;;5003410;28;90353;-47
2022/09/09 13:39:19;;;;;;;;;;;22.50;65.80;;;;;;5004640;28;86831;-47
2022/09/09 13:41:46;;;;;;;;;;;22.40;65.70;;;;;;5004755;28;87339;-48
2022/09/09 13:44:19;;;;;;;;;;;22.50;65.80;;;;;;5004229;28;88031;-48
2022/09/09 13:46:44;;;;;;;;;;;22.50;65.80;;;;;;5004017;28;87174;-47
2022/09/09 13:49:10;;;;;;;;;;;22.50;65.80;;;;;;5004493;28;87559;-47
2022/09/09 13:51:40;;;;;;;;;;;22.50;65.80;;;;;;5007178;28;87355;-48
2022/09/09 13:54:09;;;;;;;;;;;22.50;65.70;;;;;;5004481;28;88942;-48
2022/09/09 13:56:35;;;;;;;;;;;22.60;65.80;;;;;;5004047;28;88203;-48
2022/09/09 13:59:01;;;;;;;;;;;22.60;65.80;;;;;;5004201;28;87297;-48
2022/09/09 14:01:27;;;;;;;;;;;22.60;65.70;;;;;;5002335;28;87906;-47
2022/09/09 14:03:53;;;;;;;;;;;22.60;65.70;;;;;;5004098;28;87992;-47
2022/09/09 14:06:19;;;;;;;;;;;22.60;65.70;;;;;;5004251;28;87165;-47
2022/09/09 14:08:45;;;;;;;;;;;22.60;65.70;;;;;;5003709;28;87573;-48
2022/09/09 14:11:12;;;;;;;;;;;22.70;65.80;;;;;;5003672;28;89345;-49
2022/09/09 14:13:38;;;;;;;;;;;22.70;65.70;;;;;;5007089;28;87070;-47
2022/09/09 14:16:03;;;;;;;;;;;22.60;65.70;;;;;;5003270;28;89496;-47
2022/09/09 14:18:29;;;;;;;;;;;22.70;65.70;;;;;;5004457;28;86376;-47
2022/09/09 14:20:54;;;;;;;;;;;22.70;65.70;;;;;;5004108;28;87100;-47
2022/09/09 14:23:21;;;;;;;;;;;22.70;65.60;;;;;;5003466;28;89316;-47
2022/09/09 14:25:48;;;;;;;;;;;22.80;65.60;;;;;;5003108;28;88085;-47
2022/09/09 14:28:14;;;;;;;;;;;22.80;65.60;;;;;;5003823;28;88443;-48